Time;durP1;ratioP1;P1;durP2;ratioP2;P2;SDS_P1;SDS_P2;PMS_P1;PMS_P2;Temp;Humidity;BMP_temperature;BMP_pressure;BME280_temperature;BME280_humidity;BME280_pressure;Samples;Min_cycle;Max_cycle;Signal;HPM_P1;HPM_P2
2022/04/05 00:01:32;;;;;;;18.30;12.00;;;;;;;12.44;38.71;94914.09;5031843;28;20443;-61
2022/04/05 00:03:59;;;;;;;22.03;12.87;;;;;;;12.60;38.80;94912.22;5031932;28;20820;-61
2022/04/05 00:06:26;;;;;;;17.80;11.90;;;;;;;13.19;37.59;94898.06;5031417;28;20653;-62
2022/04/05 00:08:53;;;;;;;17.33;11.23;;;;;;;13.06;37.60;94911.81;5031832;28;20444;-61
2022/04/05 00:11:20;;;;;;;19.37;11.57;;;;;;;13.46;37.46;94910.03;5031172;28;20452;-61
2022/04/05 00:13:48;;;;;;;18.90;12.63;;;;;;;13.44;37.80;94901.63;5030541;28;20468;-61
2022/04/05 00:16:15;;;;;;;21.07;12.50;;;;;;;13.32;37.62;94911.72;5030432;28;20472;-62
2022/04/05 00:18:42;;;;;;;19.53;12.40;;;;;;;13.56;37.08;94909.97;5031375;28;20452;-61
2022/04/05 00:21:09;;;;;;;18.33;11.90;;;;;;;13.56;37.10;94902.06;5030794;28;20440;-62
2022/04/05 00:23:36;;;;;;;14.97;11.80;;;;;;;13.23;37.11;94889.66;5031327;28;20799;-62
2022/04/05 00:26:03;;;;;;;18.70;12.83;;;;;;;13.41;37.68;94897.69;5030798;28;20467;-61
2022/04/05 00:28:30;;;;;;;16.70;12.50;;;;;;;13.59;37.46;94904.97;5031064;28;20429;-63
2022/04/05 00:30:57;;;;;;;16.83;12.17;;;;;;;13.50;37.44;94897.91;5030503;28;20444;-61
2022/04/05 00:33:25;;;;;;;16.10;11.77;;;;;;;13.38;37.05;94897.44;5031531;28;21354;-61
2022/04/05 00:35:51;;;;;;;17.40;11.73;;;;;;;13.48;37.08;94882.41;5030261;28;21004;-63
2022/04/05 00:38:18;;;;;;;16.30;11.83;;;;;;;13.40;37.02;94896.13;5029553;28;20787;-61
2022/04/05 00:40:45;;;;;;;17.90;11.73;;;;;;;13.27;37.57;94899.34;5030503;28;20813;-61
2022/04/05 00:43:12;;;;;;;17.03;12.50;;;;;;;12.88;38.24;94898.47;5030906;28;20820;-61
2022/04/05 00:45:40;;;;;;;17.37;12.10;;;;;;;12.97;37.75;94876.56;5030075;28;20436;-63
2022/04/05 00:48:07;;;;;;;16.30;12.37;;;;;;;13.18;37.83;94883.34;5030545;28;20443;-61
2022/04/05 00:50:38;;;;;;;17.27;12.53;;;;;;;11.37;40.99;94876.81;5030441;28;20554;-61
2022/04/05 00:53:07;;;;;;;17.10;12.53;;;;;;;11.80;40.55;94889.47;5031211;28;20547;-61
2022/04/05 00:55:35;;;;;;;21.90;11.77;;;;;;;12.39;39.39;94874.69;5029658;28;20428;-63
2022/04/05 00:58:03;;;;;;;18.33;11.70;;;;;;;12.62;39.14;94874.09;5030733;28;20452;-61
2022/04/05 01:00:32;;;;;;;24.47;12.77;;;;;;;12.77;39.17;94881.91;5029584;28;20443;-61
2022/04/05 01:03:00;;;;;;;17.93;12.30;;;;;;;12.88;38.84;94867.66;5030337;28;20958;-60
2022/04/05 01:05:28;;;;;;;17.07;12.67;;;;;;;12.89;38.27;94874.53;5030016;28;21033;-61
2022/04/05 01:07:59;;;;;;;24.73;12.90;;;;;;;13.12;37.96;94873.91;5030395;28;20945;-61
2022/04/05 01:10:29;;;;;;;17.40;11.53;;;;;;;13.23;37.84;94873.88;5030665;28;20534;-61
2022/04/05 01:12:56;;;;;;;17.27;12.47;;;;;;;12.96;38.15;94861.88;5029607;28;20922;-61
2022/04/05 01:15:24;;;;;;;20.70;13.23;;;;;;;13.08;38.01;94867.59;5029726;28;20483;-62
2022/04/05 01:17:52;;;;;;;15.73;11.87;;;;;;;13.17;37.87;94865.97;5030216;28;20448;-62
2022/04/05 01:20:19;;;;;;;16.27;11.57;;;;;;;13.09;37.85;94863.94;5029808;28;20428;-61
2022/04/05 01:22:51;;;;;;;17.77;12.23;;;;;;;13.25;37.74;94871.75;5030525;28;20456;-62
2022/04/05 01:25:19;;;;;;;18.40;12.80;;;;;;;13.30;37.52;94869.88;5029367;28;20443;-62
2022/04/05 01:27:47;;;;;;;19.30;11.93;;;;;;;13.03;38.02;94870.28;5030435;28;20852;-63
2022/04/05 01:30:14;;;;;;;14.10;9.33;;;;;;;13.15;38.20;94876.00;5029808;28;20447;-63
2022/04/05 01:32:41;;;;;;;14.53;10.73;;;;;;;12.38;39.65;94872.31;5030116;28;20897;-61
2022/04/05 01:35:10;;;;;;;15.20;10.17;;;;;;;12.59;39.49;94864.09;5029555;28;20420;-63
2022/04/05 01:37:36;;;;;;;14.70;10.80;;;;;;;12.42;39.80;94871.53;5030407;28;20440;-62
2022/04/05 01:40:04;;;;;;;14.47;10.67;;;;;;;12.40;39.63;94868.38;5029687;28;20836;-62
2022/04/05 01:42:33;;;;;;;16.67;11.70;;;;;;;12.59;39.11;94858.84;5030322;28;20582;-62
2022/04/05 01:45:01;;;;;;;13.30;9.97;;;;;;;11.86;40.80;94859.53;5029285;28;20452;-61
2022/04/05 01:47:28;;;;;;;17.83;12.23;;;;;;;11.86;40.97;94867.41;5030261;28;20488;-62
2022/04/05 01:49:55;;;;;;;20.77;13.03;;;;;;;11.94;40.54;94872.13;5029233;28;20450;-61
2022/04/05 01:52:22;;;;;;;15.93;12.23;;;;;;;11.89;41.07;94872.13;5029987;28;20435;-62
2022/04/05 01:54:50;;;;;;;18.30;11.85;;;;;;;12.33;40.00;94870.50;5029353;28;20177;-62
2022/04/05 01:57:16;;;;;;;17.00;12.00;;;;;;;12.35;40.18;94873.66;5029623;28;20598;-62
2022/04/05 01:59:44;;;;;;;18.03;12.47;;;;;;;12.53;39.55;94865.19;5029273;28;20470;-62
2022/04/05 02:02:11;;;;;;;20.42;12.93;;;;;;;12.64;39.31;94855.44;5030149;28;20444;-61
2022/04/05 02:04:39;;;;;;;20.07;12.30;;;;;;;12.59;39.27;94860.72;5029328;28;20559;-62
2022/04/05 02:07:12;;;;;;;19.20;12.57;;;;;;;12.51;39.34;94862.03;5029690;28;20557;-62
2022/04/05 02:09:39;;;;;;;20.23;12.27;;;;;;;11.91;41.20;94862.16;5027621;28;20980;-62
2022/04/05 02:12:07;;;;;;;20.43;11.43;;;;;;;11.44;42.26;94857.13;5028289;28;20441;-62
2022/04/05 02:14:53;;;;;;;17.50;12.15;;;;;;;11.81;41.41;94854.28;5029119;28;20820;-62
2022/04/05 02:17:28;;;;;;;15.60;11.75;;;;;;;12.21;40.69;94856.84;5028072;28;20290;-62
2022/04/05 02:19:57;;;;;;;16.35;11.52;;;;;;;12.23;40.59;94849.50;5027810;28;20323;-62
2022/04/05 02:22:25;;;;;;;21.35;12.75;;;;;;;11.86;41.40;94843.78;5028167;28;20292;-62
2022/04/05 02:24:57;;;;;;;18.17;13.00;;;;;;;12.29;40.50;94843.19;5027928;28;20241;-61
2022/04/05 02:27:30;;;;;;;18.87;12.83;;;;;;;12.33;40.68;94836.34;5028078;28;20483;-62
2022/04/05 02:29:59;;;;;;;18.80;11.43;;;;;;;12.41;40.14;94835.00;5027328;28;20993;-62
2022/04/05 02:32:26;;;;;;;16.70;10.83;;;;;;;12.16;40.97;94828.78;5028267;28;20448;-62
2022/04/05 02:34:55;;;;;;;14.77;10.63;;;;;;;12.58;39.65;94820.50;5027431;28;20436;-61
2022/04/05 02:37:23;;;;;;;15.07;11.03;;;;;;;12.61;39.71;94829.69;5028228;28;20535;-61
2022/04/05 02:39:54;;;;;;;16.20;10.53;;;;;;;12.77;39.79;94823.31;5027050;28;20906;-63
2022/04/05 02:42:21;;;;;;;17.47;10.73;;;;;;;12.52;39.66;94824.19;5029760;28;20432;-61
2022/04/05 02:44:48;;;;;;;16.87;10.63;;;;;;;12.19;40.42;94814.28;5027512;28;20440;-61
2022/04/05 02:47:17;;;;;;;16.05;11.27;;;;;;;12.02;40.93;94824.34;5028132;28;20483;-61
2022/04/05 02:49:47;;;;;;;17.25;11.32;;;;;;;11.53;42.11;94818.03;5027111;28;20193;-61
2022/04/05 02:52:20;;;;;;;17.48;11.45;;;;;;;10.67;43.50;94820.53;5027461;28;20205;-61
2022/04/05 02:54:53;;;;;;;15.48;11.02;;;;;;;10.57;43.52;94825.72;5027896;28;20260;-63
2022/04/05 02:57:22;;;;;;;17.38;11.48;;;;;;;11.44;42.71;94827.50;5027376;28;20201;-64
2022/04/05 02:59:52;;;;;;;25.13;11.98;;;;;;;11.56;41.83;94812.25;5027457;28;20212;-62
2022/04/05 03:02:21;;;;;;;19.75;11.82;;;;;;;11.76;41.85;94828.03;5027853;28;20292;-62
2022/04/05 03:04:48;;;;;;;21.13;12.03;;;;;;;11.95;41.45;94819.34;5028969;28;20191;-62
2022/04/05 03:07:17;;;;;;;18.92;11.75;;;;;;;11.76;41.93;94818.31;5027640;28;21002;-62
2022/04/05 03:09:44;;;;;;;17.07;12.00;;;;;;;12.10;41.25;94821.16;5027327;28;20675;-62
2022/04/05 03:12:13;;;;;;;19.40;11.47;;;;;;;11.93;41.21;94818.81;5028023;28;20440;-62
2022/04/05 03:14:43;;;;;;;19.90;11.60;;;;;;;12.10;40.93;94813.28;5027021;28;20451;-62
2022/04/05 03:17:11;;;;;;;23.43;12.33;;;;;;;12.00;40.82;94808.06;5029113;28;20468;-63
2022/04/05 03:19:40;;;;;;;21.33;11.47;;;;;;;12.17;40.36;94809.31;5027219;28;20643;-63
2022/04/05 03:22:10;;;;;;;17.20;12.00;;;;;;;12.07;40.90;94813.81;5027791;28;20455;-63
2022/04/05 03:24:37;;;;;;;29.77;16.80;;;;;;;12.00;41.52;94808.84;5031796;28;20443;-63
2022/04/05 03:27:05;;;;;;;31.67;20.37;;;;;;;11.96;41.18;94807.00;5031313;28;20483;-62
2022/04/05 03:29:32;;;;;;;35.20;22.03;;;;;;;11.93;41.15;94812.78;5030405;28;20439;-62
2022/04/05 03:32:01;;;;;;;36.60;21.30;;;;;;;12.01;41.25;94809.63;5030968;28;20444;-62
2022/04/05 03:34:29;;;;;;;33.07;20.47;;;;;;;11.97;41.16;94805.97;5030621;28;20519;-62
2022/04/05 03:36:57;;;;;;;37.43;21.07;;;;;;;11.96;40.55;94804.38;5030609;28;20501;-63
2022/04/05 03:39:24;;;;;;;35.73;21.60;;;;;;;11.89;41.06;94814.38;5030145;28;20498;-63
2022/04/05 03:41:53;;;;;;;33.10;20.80;;;;;;;11.73;40.97;94807.56;5030861;28;20469;-62
2022/04/05 03:44:20;;;;;;;35.93;21.87;;;;;;;11.86;41.34;94813.06;5031626;28;20254;-62
2022/04/05 03:46:49;;;;;;;28.77;19.52;;;;;;;11.69;41.02;94806.53;5032361;28;20538;-61
2022/04/05 03:49:17;;;;;;;35.88;18.77;;;;;;;11.73;41.04;94810.19;5030253;28;20258;-62
2022/04/05 03:51:51;;;;;;;25.93;16.83;;;;;;;11.49;41.01;94804.66;5030349;28;20697;-62
2022/04/05 03:54:18;;;;;;;23.73;17.00;;;;;;;11.58;41.08;94810.16;5031490;28;20450;-63
2022/04/05 03:56:45;;;;;;;24.07;15.50;;;;;;;11.29;41.17;94803.88;5030946;28;21004;-63
2022/04/05 03:59:13;;;;;;;20.73;14.03;;;;;;;11.32;41.39;94811.19;5029054;28;20883;-61
2022/04/05 04:01:40;;;;;;;20.80;14.03;;;;;;;11.05;41.39;94811.44;5028909;28;20467;-62
2022/04/05 04:04:08;;;;;;;18.63;12.93;;;;;;;10.92;41.72;94809.31;5041973;28;20524;-62
2022/04/05 04:06:36;;;;;;;21.90;13.23;;;;;;;10.81;41.68;94811.13;5035830;28;20198;-63
2022/04/05 04:09:04;;;;;;;22.02;13.32;;;;;;;10.80;42.98;94803.53;5029661;28;20526;-62
2022/04/05 04:11:32;;;;;;;19.05;14.32;;;;;;;10.72;43.35;94817.13;5013351;28;20669;-63
2022/04/05 04:13:59;;;;;;;17.85;12.18;;;;;;;10.87;41.99;94799.63;5031468;28;20201;-62
2022/04/05 04:16:28;;;;;;;18.57;13.10;;;;;;;10.64;42.42;94810.53;5029214;28;20298;-63
2022/04/05 04:18:55;;;;;;;19.73;13.13;;;;;;;10.82;42.34;94811.94;5029608;28;20464;-62
2022/04/05 04:21:26;;;;;;;17.57;12.40;;;;;;;10.90;42.06;94814.81;5028872;28;20993;-63
2022/04/05 04:23:54;;;;;;;18.58;12.57;;;;;;;10.79;42.80;94823.69;5030437;28;21245;-61
2022/04/05 04:26:22;;;;;;;21.73;12.23;;;;;;;10.60;42.51;94819.97;5029589;28;20212;-62
2022/04/05 04:28:51;;;;;;;19.58;12.30;;;;;;;10.70;42.56;94825.25;5029649;28;20266;-63
2022/04/05 04:31:18;;;;;;;20.20;13.48;;;;;;;10.94;42.22;94825.56;5030018;28;20752;-62
2022/04/05 04:33:45;;;;;;;24.88;14.48;;;;;;;10.94;41.85;94833.44;5031043;28;20205;-62
2022/04/05 04:36:13;;;;;;;20.75;15.10;;;;;;;10.70;42.61;94827.88;5030170;28;20244;-62
2022/04/05 04:38:40;;;;;;;21.52;15.60;;;;;;;10.83;43.98;94830.00;5030705;28;20699;-63
2022/04/05 04:41:07;;;;;;;20.50;15.03;;;;;;;10.63;43.50;94837.81;5030141;28;20204;-61
2022/04/05 04:43:34;;;;;;;24.10;14.75;;;;;;;10.65;42.87;94838.34;5030286;28;20459;-62
2022/04/05 04:46:01;;;;;;;21.60;15.32;;;;;;;10.61;44.19;94832.03;5030138;28;20260;-64
2022/04/05 04:48:28;;;;;;;24.27;15.00;;;;;;;10.68;43.90;94821.28;5030534;28;20221;-62
2022/04/05 04:50:55;;;;;;;23.00;15.18;;;;;;;11.14;43.00;94829.03;5029607;28;20444;-60
2022/04/05 04:53:22;;;;;;;24.55;16.38;;;;;;;11.14;42.76;94831.66;5030820;28;20205;-63
2022/04/05 04:55:50;;;;;;;24.30;15.63;;;;;;;10.99;43.38;94815.09;5029858;28;20215;-62
2022/04/05 04:58:37;;;;;;;25.17;16.27;;;;;;;11.02;42.97;94831.09;5030324;28;20436;-62
2022/04/05 05:01:04;;;;;;;20.35;15.40;;;;;;;11.21;42.93;94834.81;5030078;28;20201;-63
2022/04/05 05:03:32;;;;;;;25.40;16.15;;;;;;;11.12;43.02;94823.25;5030455;28;20682;-63
2022/04/05 05:05:59;;;;;;;25.85;16.08;;;;;;;11.16;43.17;94828.78;5030436;28;20587;-64
2022/04/05 05:08:26;;;;;;;48.43;31.60;;;;;;;11.41;43.35;94825.38;5030081;28;20320;-69
2022/04/05 05:10:53;;;;;;;42.50;24.75;;;;;;;11.17;42.65;94831.13;5029773;28;20448;-66
2022/04/05 05:13:20;;;;;;;34.75;18.92;;;;;;;10.19;43.90;94839.97;5030771;28;20201;-62
2022/04/05 05:15:49;;;;;;;37.63;19.40;;;;;;;10.01;44.64;94842.16;5029998;28;20228;-62
2022/04/05 05:18:16;;;;;;;30.05;19.05;;;;;;;10.33;44.40;94850.75;5030503;28;21061;-62
2022/04/05 05:20:43;;;;;;;27.77;19.35;;;;;;;10.59;43.97;94838.56;5029338;28;20295;-62
2022/04/05 05:23:10;;;;;;;31.60;19.25;;;;;;;10.83;43.30;94835.25;5030217;28;20608;-64
2022/04/05 05:25:38;;;;;;;33.13;19.20;;;;;;;10.95;42.60;94845.47;5028648;28;20205;-62
2022/04/05 05:28:05;;;;;;;44.55;19.95;;;;;;;10.44;44.24;94852.38;5030047;28;20231;-62
2022/04/05 05:30:33;;;;;;;33.75;20.77;;;;;;;10.49;44.47;94865.50;5029712;28;20196;-65
2022/04/05 05:33:00;;;;;;;37.30;22.83;;;;;;;10.78;43.54;94864.06;5030249;28;20537;-64
2022/04/05 05:35:27;;;;;;;37.35;23.27;;;;;;;10.58;43.79;94869.22;5029996;28;20247;-62
2022/04/05 05:37:56;;;;;;;42.10;28.07;;;;;;;10.70;43.33;94867.19;5029839;28;20181;-61
2022/04/05 05:40:23;;;;;;;60.27;36.57;;;;;;;10.69;43.71;94862.19;5029410;28;20432;-61
2022/04/05 05:43:01;;;;;;;50.38;33.92;;;;;;;11.05;42.93;94851.56;5030008;28;20817;-62
2022/04/05 05:45:31;;;;;;;56.38;30.63;;;;;;;11.15;43.04;94854.19;5027531;28;20595;-62
2022/04/05 05:47:58;;;;;;;51.80;30.63;;;;;;;11.26;42.42;94859.47;5030175;28;20236;-63
2022/04/05 05:50:26;;;;;;;57.33;33.47;;;;;;;11.47;41.90;94854.00;5027931;28;20204;-62
2022/04/05 05:52:53;;;;;;;67.00;44.33;;;;;;;11.75;41.80;94847.47;5028435;28;20479;-61
2022/04/05 05:55:22;;;;;;;55.07;36.00;;;;;;;11.74;41.87;94848.50;5027867;28;20208;-62
2022/04/05 05:57:49;;;;;;;65.00;35.77;;;;;;;11.48;42.53;94852.16;5028281;28;20965;-61
2022/04/05 06:00:22;;;;;;;55.13;31.13;;;;;;;11.83;41.95;94849.56;5028315;28;20452;-61
2022/04/05 06:02:56;;;;;;;55.10;29.93;;;;;;;12.12;41.01;94847.94;5029643;28;20213;-62
2022/04/05 06:05:25;;;;;;;32.60;20.20;;;;;;;12.04;40.85;94840.63;5028316;28;20444;-61
2022/04/05 06:07:52;;;;;;;29.40;18.07;;;;;;;12.02;41.57;94853.22;5028776;28;20488;-62
2022/04/05 06:10:20;;;;;;;27.83;16.25;;;;;;;11.07;42.05;94840.81;5028679;28;20502;-63
2022/04/05 06:12:48;;;;;;;19.85;14.40;;;;;;;11.65;42.30;94852.72;5029441;28;20277;-62
2022/04/05 06:15:17;;;;;;;21.77;15.13;;;;;;;11.95;41.65;94839.56;5028613;28;20386;-63
2022/04/05 06:17:47;;;;;;;28.40;15.80;;;;;;;12.04;41.96;94845.88;5029350;28;20485;-61
2022/04/05 06:20:16;;;;;;;36.90;18.23;;;;;;;12.15;41.34;94839.53;5028818;28;20438;-63
2022/04/05 06:22:46;;;;;;;23.37;14.67;;;;;;;12.40;40.96;94838.69;5029228;28;20581;-63
2022/04/05 06:25:16;;;;;;;25.37;16.70;;;;;;;12.31;40.25;94835.81;5028887;28;20451;-62
2022/04/05 06:27:43;;;;;;;25.60;16.67;;;;;;;12.22;41.24;94834.78;5029303;28;20472;-62
2022/04/05 06:30:11;;;;;;;30.50;16.57;;;;;;;12.49;40.92;94837.88;5028717;28;20449;-61
2022/04/05 06:32:38;;;;;;;28.17;16.40;;;;;;;12.53;41.35;94838.91;5029285;28;20827;-63
2022/04/05 06:35:07;;;;;;;27.37;15.73;;;;;;;13.13;40.48;94843.94;5028966;28;20454;-61
2022/04/05 06:37:36;;;;;;;26.70;16.03;;;;;;;13.03;40.02;94838.72;5028516;28;20949;-61
2022/04/05 06:40:05;;;;;;;25.43;16.77;;;;;;;12.97;40.75;94829.22;5028390;28;20439;-63
2022/04/05 06:42:33;;;;;;;27.50;16.53;;;;;;;13.09;40.09;94832.38;5028760;28;20443;-62
2022/04/05 06:45:00;;;;;;;29.60;17.43;;;;;;;13.11;40.75;94835.53;5028590;28;20510;-61
2022/04/05 06:47:27;;;;;;;25.73;16.00;;;;;;;12.22;40.62;94832.94;5033782;28;20501;-62
2022/04/05 06:49:55;;;;;;;23.33;15.67;;;;;;;12.58;40.98;94819.69;5028173;28;20448;-62
2022/04/05 06:52:21;;;;;;;22.70;15.67;;;;;;;12.66;40.60;94827.84;5028637;28;20447;-62
2022/04/05 06:54:48;;;;;;;29.20;15.70;;;;;;;13.09;39.88;94826.31;5028526;28;20444;-63
2022/04/05 06:57:15;;;;;;;29.93;16.10;;;;;;;13.05;39.92;94820.81;5028741;28;20451;-62
2022/04/05 06:59:48;;;;;;;37.07;16.73;;;;;;;13.34;40.23;94817.50;5032118;28;20450;-62
2022/04/05 07:02:15;;;;;;;27.40;16.70;;;;;;;12.96;41.07;94817.16;5033115;28;20534;-62
2022/04/05 07:04:42;;;;;;;28.13;16.27;;;;;;;13.67;39.48;94827.22;5032036;28;20873;-62
2022/04/05 07:07:09;;;;;;;25.83;15.53;;;;;;;13.53;39.58;94816.53;5032187;28;20449;-62
2022/04/05 07:09:36;;;;;;;24.70;16.30;;;;;;;13.81;39.15;94817.66;5031788;28;20573;-62
2022/04/05 07:12:03;;;;;;;25.93;15.73;;;;;;;14.04;38.56;94811.63;5032453;28;20450;-62
2022/04/05 07:14:31;;;;;;;25.47;15.63;;;;;;;13.71;39.49;94812.44;5031700;28;20443;-62
2022/04/05 07:16:58;;;;;;;24.00;16.60;;;;;;;13.00;39.95;94828.72;5032198;28;20463;-62
2022/04/05 07:19:25;;;;;;;26.43;16.30;;;;;;;13.47;39.41;94816.84;5031636;28;20508;-61
2022/04/05 07:21:52;;;;;;;24.37;17.07;;;;;;;13.34;39.73;94818.25;5031519;28;20546;-62
2022/04/05 07:24:19;;;;;;;26.80;16.90;;;;;;;13.92;40.43;94817.25;5031720;28;20527;-63
2022/04/05 07:26:46;;;;;;;25.37;16.57;;;;;;;14.02;38.25;94814.53;5032244;28;20443;-62
2022/04/05 07:29:13;;;;;;;25.27;15.87;;;;;;;14.10;38.51;94819.19;5031479;28;21100;-62
2022/04/05 07:31:40;;;;;;;31.13;16.00;;;;;;;14.52;39.08;94808.00;5031412;28;20641;-61
2022/04/05 07:34:07;;;;;;;21.77;14.93;;;;;;;14.27;38.52;94810.88;5031629;28;20513;-62
2022/04/05 07:36:34;;;;;;;23.00;15.37;;;;;;;14.94;38.17;94805.31;5031374;28;20459;-61
2022/04/05 07:39:02;;;;;;;23.17;15.50;;;;;;;15.12;36.84;94804.56;5031679;28;20448;-63
2022/04/05 07:41:29;;;;;;;18.60;13.37;;;;;;;14.87;37.09;94812.03;5031025;28;20981;-63
2022/04/05 07:43:56;;;;;;;25.53;13.30;;;;;;;15.20;37.50;94816.31;5031686;28;20458;-61
2022/04/05 07:46:22;;;;;;;18.87;12.13;;;;;;;14.12;37.39;94803.88;5031499;28;20518;-65
2022/04/05 07:48:50;;;;;;;13.80;10.30;;;;;;;14.77;36.68;94799.75;5031717;28;20927;-62
2022/04/05 07:51:17;;;;;;;15.23;9.73;;;;;;;14.92;35.96;94796.94;5030562;28;20891;-63
2022/04/05 07:53:44;;;;;;;16.93;10.17;;;;;;;14.73;36.68;94804.03;5031363;28;20517;-61
2022/04/05 07:56:13;;;;;;;15.50;9.77;;;;;;;14.90;36.93;94804.34;5030736;28;20448;-61
2022/04/05 07:58:42;;;;;;;17.47;10.93;;;;;;;15.14;36.46;94802.41;5031473;28;20459;-62
2022/04/05 08:01:10;;;;;;;14.53;10.03;;;;;;;15.17;35.73;94788.66;5030517;28;20440;-61
2022/04/05 08:03:38;;;;;;;16.37;10.37;;;;;;;15.30;36.95;94796.91;5029655;28;20450;-63
2022/04/05 08:06:06;;;;;;;14.37;9.80;;;;;;;15.80;36.97;94796.94;5031219;28;20444;-62
2022/04/05 08:08:34;;;;;;;13.47;9.77;;;;;;;15.94;35.71;94783.78;5030317;28;21394;-62
2022/04/05 08:11:21;;;;;;;14.20;9.63;;;;;;;15.82;35.99;94783.47;5031159;28;21000;-62
2022/04/05 08:13:48;;;;;;;16.17;9.77;;;;;;;15.76;35.38;94785.41;5030284;28;20447;-62
2022/04/05 08:16:15;;;;;;;21.23;9.10;;;;;;;15.72;34.97;94786.25;5030360;28;20483;-63
2022/04/05 08:18:42;;;;;;;21.33;10.17;;;;;;;15.94;36.13;94781.91;5030775;28;20467;-63
2022/04/05 08:21:11;;;;;;;19.60;9.70;;;;;;;16.11;34.16;94781.38;5030200;28;20987;-62
2022/04/05 08:23:38;;;;;;;16.40;9.03;;;;;;;16.55;34.62;94778.94;5030862;28;20432;-61
2022/04/05 08:26:05;;;;;;;14.37;9.30;;;;;;;16.82;33.73;94776.25;5030826;28;20494;-62
2022/04/05 08:28:32;;;;;;;14.73;9.90;;;;;;;16.58;34.21;94775.72;5031432;28;20835;-65
2022/04/05 08:30:59;;;;;;;13.57;9.67;;;;;;;17.04;34.41;94778.97;5030316;28;20448;-62
2022/04/05 08:33:27;;;;;;;21.73;10.13;;;;;;;17.00;34.11;94771.94;5030843;28;20471;-62
2022/04/05 08:35:55;;;;;;;14.23;9.50;;;;;;;17.24;33.75;94762.63;5030218;28;20977;-62
2022/04/05 08:38:22;;;;;;;20.67;9.83;;;;;;;17.08;33.40;94766.69;5029751;28;20455;-61
2022/04/05 08:40:49;;;;;;;20.13;9.50;;;;;;;17.19;33.27;94762.75;5030433;28;20609;-62
2022/04/05 08:43:16;;;;;;;13.70;8.73;;;;;;;17.52;32.68;94763.34;5030994;28;20452;-61
2022/04/05 08:45:57;;;;;;;16.67;7.53;;;;;;;17.30;32.18;94751.94;5029910;28;20539;-62
2022/04/05 08:48:27;;;;;;;15.97;8.33;;;;;;;17.52;32.03;94751.94;5030785;28;20478;-61
2022/04/05 08:50:55;;;;;;;12.27;8.10;;;;;;;17.39;31.57;94758.09;5030113;28;20953;-61
2022/04/05 08:53:23;;;;;;;12.83;7.73;;;;;;;16.53;30.46;94746.72;5030832;28;20447;-62
2022/04/05 08:55:54;;;;;;;14.93;8.10;;;;;;;16.56;31.46;94746.13;5030062;28;20816;-62
2022/04/05 08:58:21;;;;;;;13.63;8.57;;;;;;;17.33;31.67;94735.44;5030793;28;20443;-62
2022/04/05 09:00:48;;;;;;;17.07;10.60;;;;;;;17.76;32.49;94733.88;5029437;28;20440;-61
2022/04/05 09:03:15;;;;;;;14.73;10.03;;;;;;;17.77;31.90;94730.91;5030271;28;20455;-62
2022/04/05 09:05:43;;;;;;;16.10;9.67;;;;;;;17.13;31.05;94734.06;5029667;28;20954;-62
2022/04/05 09:08:16;;;;;;;18.00;9.47;;;;;;;17.80;31.64;94726.88;5029808;28;20464;-62
2022/04/05 09:11:08;;;;;;;15.77;8.57;;;;;;;18.09;29.90;94720.00;5028991;28;20505;-62
2022/04/05 09:13:35;;;;;;;10.83;8.50;;;;;;;18.28;29.66;94717.13;5029457;28;20448;-62
2022/04/05 09:16:05;;;;;;;12.77;8.53;;;;;;;18.07;29.86;94716.09;5029062;28;20484;-66
2022/04/05 09:18:42;;;;;;;10.23;6.90;;;;;;;18.14;29.02;94703.97;5029997;28;20447;-62
2022/04/05 09:21:10;;;;;;;11.50;8.63;;;;;;;17.70;28.98;94705.97;5028277;28;20451;-63
2022/04/05 09:23:43;;;;;;;11.80;7.87;;;;;;;18.11;29.73;94706.44;5029598;28;20444;-63
2022/04/05 09:26:14;;;;;;;9.13;7.30;;;;;;;18.52;29.04;94701.59;5028507;28;20482;-62
2022/04/05 09:28:44;;;;;;;10.20;6.50;;;;;;;18.40;28.04;94704.03;5029779;28;20530;-61
2022/04/05 09:31:17;;;;;;;7.73;5.20;;;;;;;18.58;27.20;94697.72;5028800;28;20436;-64
2022/04/05 09:34:05;;;;;;;7.30;4.90;;;;;;;19.13;27.31;94689.94;5029414;28;20452;-62
2022/04/05 09:36:36;;;;;;;8.80;4.50;;;;;;;19.04;26.97;94692.63;5029673;28;20431;-61
2022/04/05 09:39:21;;;;;;;5.87;4.03;;;;;;;19.23;25.18;94690.41;5035207;28;20458;-63
2022/04/05 09:41:59;;;;;;;11.07;4.90;;;;;;;19.38;25.51;94688.41;5033187;28;20455;-62
2022/04/05 09:44:32;;;;;;;6.70;3.40;;;;;;;19.86;24.35;94687.03;5029388;28;20451;-62
2022/04/05 09:47:14;;;;;;;8.60;3.70;;;;;;;20.04;23.54;94661.94;5045040;28;20538;-64
2022/04/05 09:49:43;;;;;;;4.90;3.20;;;;;;;19.55;21.66;94681.19;5048971;28;20569;-61
2022/04/05 09:52:34;;;;;;;3.87;2.30;;;;;;;20.12;22.07;94668.31;5049455;28;20451;-62
2022/04/05 09:55:15;;;;;;;5.20;3.10;;;;;;;20.31;22.81;94671.38;5049121;28;20439;-62
2022/04/05 09:57:43;;;;;;;3.50;2.57;;;;;;;20.72;21.47;94665.34;5049921;28;20500;-63
2022/04/05 10:00:19;;;;;;;3.30;2.70;;;;;;;20.09;21.39;94667.06;5049051;28;20427;-62
2022/04/05 10:03:04;;;;;;;3.80;2.83;;;;;;;20.81;22.36;94666.84;5049138;28;20446;-62
2022/04/05 10:05:33;;;;;;;18.67;3.57;;;;;;;21.15;22.09;94652.50;5048800;28;20446;-62
2022/04/05 10:08:01;;;;;;;25.57;3.50;;;;;;;21.46;21.51;94652.06;5049276;28;20438;-62
2022/04/05 10:10:28;;;;;;;3.67;2.90;;;;;;;20.80;21.01;94643.97;5048018;28;20443;-63
2022/04/05 10:12:55;;;;;;;4.47;2.93;;;;;;;21.17;22.19;94645.75;5049080;28;20835;-63
2022/04/05 10:15:24;;;;;;;10.43;3.80;;;;;;;21.61;23.08;94638.09;5048302;28;20450;-63
2022/04/05 10:17:53;;;;;;;7.67;4.50;;;;;;;21.59;23.37;94633.09;5048778;28;20447;-63
2022/04/05 10:20:22;;;;;;;4.53;4.10;;;;;;;21.95;22.92;94629.75;5048259;28;20992;-61
2022/04/05 10:22:54;;;;;;;5.63;4.40;;;;;;;21.51;22.75;94633.97;5048844;28;20459;-63
2022/04/05 10:25:22;;;;;;;5.90;4.30;;;;;;;21.55;22.39;94624.19;5048415;28;21003;-61
2022/04/05 10:27:49;;;;;;;6.23;4.73;;;;;;;22.03;22.63;94623.50;5048806;28;20449;-63
2022/04/05 10:30:24;;;;;;;7.27;4.00;;;;;;;21.86;22.87;94623.72;5048053;28;20577;-64
2022/04/05 10:33:12;;;;;;;7.10;3.90;;;;;;;22.23;22.83;94611.94;5050969;28;20964;-63
2022/04/05 10:35:50;;;;;;;8.93;4.33;;;;;;;22.15;22.33;94610.19;5052434;28;20480;-63
2022/04/05 10:38:20;;;;;;;4.93;4.00;;;;;;;22.26;22.45;94605.16;5052576;28;20453;-64
2022/04/05 10:41:23;;;;;;;6.73;3.57;;;;;;;22.09;22.78;94579.47;5051994;28;20565;-63
2022/04/05 10:44:27;;;;;;;7.83;4.37;;;;;;;22.24;22.64;94594.81;5052618;28;20427;-64
2022/04/05 10:47:00;;;;;;;6.23;4.27;;;;;;;22.44;22.60;94591.25;5052614;28;20447;-63
2022/04/05 10:49:50;;;;;;;4.93;3.77;;;;;;;22.38;22.92;94592.56;5051625;28;20559;-64
2022/04/05 10:52:31;;;;;;;10.03;4.80;;;;;;;22.29;22.29;94589.25;5052242;28;20439;-63
2022/04/05 10:55:04;;;;;;;7.97;4.60;;;;;;;21.98;22.92;94591.72;5051992;28;20807;-64
2022/04/05 10:57:35;;;;;;;7.93;4.87;;;;;;;21.64;21.77;94589.44;5052103;28;20839;-63
2022/04/05 11:00:02;;;;;;;7.10;4.60;;;;;;;21.90;22.34;94587.25;5051968;28;20817;-63
2022/04/05 11:02:55;;;;;;;4.60;4.20;;;;;;;22.04;22.32;94574.38;5052119;28;20439;-63
2022/04/05 11:05:24;;;;;;;7.57;4.47;;;;;;;21.93;21.07;94582.03;5051185;28;20443;-63
2022/04/05 11:07:54;;;;;;;6.63;4.50;;;;;;;21.39;21.31;94577.16;5052523;28;20434;-64
2022/04/05 11:10:36;;;;;;;9.57;5.13;;;;;;;22.16;21.67;94569.03;5051682;28;20493;-63
2022/04/05 11:13:07;;;;;;;11.43;5.73;;;;;;;22.56;22.57;94563.75;5052172;28;20443;-63
2022/04/05 11:15:42;;;;;;;13.83;5.00;;;;;;;22.46;21.84;94551.63;5051295;28;20443;-64
2022/04/05 11:18:10;;;;;;;6.17;4.33;;;;;;;22.94;22.34;94554.16;5051987;28;20493;-63
2022/04/05 11:20:41;;;;;;;9.00;5.20;;;;;;;22.73;20.76;94556.25;5035584;28;20444;-63
2022/04/05 11:23:10;;;;;;;7.70;5.30;;;;;;;21.52;21.41;94558.22;5031804;28;20475;-63
2022/04/05 11:25:37;;;;;;;5.73;4.97;;;;;;;22.87;20.52;94539.81;5031408;28;20439;-63
2022/04/05 11:28:10;;;;;;;6.97;4.73;;;;;;;22.44;20.59;94540.50;5031667;28;20447;-64
2022/04/05 11:31:04;;;;;;;8.13;4.77;;;;;;;22.64;20.22;94520.91;5030349;28;20480;-63
2022/04/05 11:33:31;;;;;;;6.67;4.87;;;;;;;23.68;20.96;94531.25;5031792;28;20440;-61